sensor_id;sensor_type;location;lat;lon;timestamp;pressure;altitude;pressure_sealevel;temperature;humidity
20656;BME280;10487;53.320;8.672;2023-07-13T00:02:14;100998.09;;;13.39;55.36
20656;BME280;10487;53.320;8.672;2023-07-13T00:05:16;101001.88;;;13.37;55.54
20656;BME280;10487;53.320;8.672;2023-07-13T00:08:18;101002.97;;;13.34;55.51
20656;BME280;10487;53.320;8.672;2023-07-13T00:11:19;101001.53;;;13.30;55.55
20656;BME280;10487;53.320;8.672;2023-07-13T00:14:22;101004.56;;;13.26;55.48
20656;BME280;10487;53.320;8.672;2023-07-13T00:17:24;101007.75;;;13.20;55.70
20656;BME280;10487;53.320;8.672;2023-07-13T00:20:26;101002.63;;;13.17;55.63
20656;BME280;10487;53.320;8.672;2023-07-13T00:23:28;101005.44;;;13.15;55.55
20656;BME280;10487;53.320;8.672;2023-07-13T00:26:29;101006.91;;;13.08;55.71
20656;BME280;10487;53.320;8.672;2023-07-13T00:29:31;101002.16;;;13.00;55.48
20656;BME280;10487;53.320;8.672;2023-07-13T00:32:35;101009.72;;;12.95;55.60
20656;BME280;10487;53.320;8.672;2023-07-13T00:35:37;101020.66;;;12.92;55.54
20656;BME280;10487;53.320;8.672;2023-07-13T00:38:41;101012.13;;;12.87;55.56
20656;BME280;10487;53.320;8.672;2023-07-13T00:41:42;101014.19;;;12.84;55.95
20656;BME280;10487;53.320;8.672;2023-07-13T00:48:21;101000.56;;;12.76;55.73
20656;BME280;10487;53.320;8.672;2023-07-13T00:51:30;101009.69;;;12.73;55.69
20656;BME280;10487;53.320;8.672;2023-07-13T00:54:43;101003.63;;;12.71;56.02
20656;BME280;10487;53.320;8.672;2023-07-13T00:57:46;101008.22;;;12.69;56.12
20656;BME280;10487;53.320;8.672;2023-07-13T01:00:48;101017.25;;;12.68;56.00
20656;BME280;10487;53.320;8.672;2023-07-13T01:03:50;101026.22;;;12.67;56.04
20656;BME280;10487;53.320;8.672;2023-07-13T01:06:52;101021.72;;;12.68;55.96
20656;BME280;10487;53.320;8.672;2023-07-13T01:09:54;101019.41;;;12.63;55.78
20656;BME280;10487;53.320;8.672;2023-07-13T01:12:56;101020.75;;;12.58;55.87
20656;BME280;10487;53.320;8.672;2023-07-13T01:16:02;101013.06;;;12.53;55.92
20656;BME280;10487;53.320;8.672;2023-07-13T01:22:20;101030.19;;;12.51;56.23
20656;BME280;10487;53.320;8.672;2023-07-13T01:25:26;101023.03;;;12.51;56.01
20656;BME280;10487;53.320;8.672;2023-07-13T01:28:28;101018.50;;;12.52;55.83
20656;BME280;10487;53.320;8.672;2023-07-13T01:31:30;101018.84;;;12.47;55.76
20656;BME280;10487;53.320;8.672;2023-07-13T01:34:32;101016.41;;;12.44;56.19
20656;BME280;10487;53.320;8.672;2023-07-13T01:37:33;101025.66;;;12.40;56.36
20656;BME280;10487;53.320;8.672;2023-07-13T01:40:37;101018.63;;;12.39;56.20
20656;BME280;10487;53.320;8.672;2023-07-13T01:43:39;101020.31;;;12.40;55.88
20656;BME280;10487;53.320;8.672;2023-07-13T01:46:41;101019.44;;;12.39;56.12
20656;BME280;10487;53.320;8.672;2023-07-13T01:49:43;101026.66;;;12.39;56.17
20656;BME280;10487;53.320;8.672;2023-07-13T01:52:47;101011.41;;;12.39;56.28
20656;BME280;10487;53.320;8.672;2023-07-13T01:55:49;101022.13;;;12.39;55.90
20656;BME280;10487;53.320;8.672;2023-07-13T01:58:51;101024.78;;;12.39;55.99
20656;BME280;10487;53.320;8.672;2023-07-13T02:01:53;101017.75;;;12.38;55.92
20656;BME280;10487;53.320;8.672;2023-07-13T02:04:55;101001.81;;;12.37;56.01
20656;BME280;10487;53.320;8.672;2023-07-13T02:07:57;101009.81;;;12.37;56.06
20656;BME280;10487;53.320;8.672;2023-07-13T02:11:00;101013.50;;;12.36;56.11
20656;BME280;10487;53.320;8.672;2023-07-13T02:14:02;101010.81;;;12.36;55.98
20656;BME280;10487;53.320;8.672;2023-07-13T02:17:05;101010.81;;;12.36;56.16
20656;BME280;10487;53.320;8.672;2023-07-13T02:20:07;101018.13;;;12.34;56.43
20656;BME280;10487;53.320;8.672;2023-07-13T02:23:09;101013.00;;;12.31;56.31
20656;BME280;10487;53.320;8.672;2023-07-13T02:26:11;101008.81;;;12.27;56.38
20656;BME280;10487;53.320;8.672;2023-07-13T02:29:13;101000.06;;;12.25;56.48
20656;BME280;10487;53.320;8.672;2023-07-13T02:32:15;101003.72;;;12.24;56.22
20656;BME280;10487;53.320;8.672;2023-07-13T02:35:17;100995.72;;;12.24;56.18
20656;BME280;10487;53.320;8.672;2023-07-13T02:38:19;100995.09;;;12.20;56.38
20656;BME280;10487;53.320;8.672;2023-07-13T02:41:20;100999.69;;;12.18;56.49
20656;BME280;10487;53.320;8.672;2023-07-13T02:44:24;100989.97;;;12.17;56.42
20656;BME280;10487;53.320;8.672;2023-07-13T02:47:26;100997.25;;;12.15;56.27
20656;BME280;10487;53.320;8.672;2023-07-13T02:50:28;101003.81;;;12.11;56.35
20656;BME280;10487;53.320;8.672;2023-07-13T02:53:30;101007.56;;;12.09;56.33
20656;BME280;10487;53.320;8.672;2023-07-13T02:56:32;101008.31;;;12.11;56.39
20656;BME280;10487;53.320;8.672;2023-07-13T02:59:34;101011.84;;;12.11;56.61
20656;BME280;10487;53.320;8.672;2023-07-13T03:02:35;101010.75;;;12.14;56.43
20656;BME280;10487;53.320;8.672;2023-07-13T03:05:37;101019.50;;;12.16;56.42
20656;BME280;10487;53.320;8.672;2023-07-13T03:08:39;101018.44;;;12.18;56.38
20656;BME280;10487;53.320;8.672;2023-07-13T03:11:41;101025.38;;;12.21;56.50
20656;BME280;10487;53.320;8.672;2023-07-13T03:14:43;101007.50;;;12.21;56.68
20656;BME280;10487;53.320;8.672;2023-07-13T03:17:45;101013.66;;;12.22;56.32
20656;BME280;10487;53.320;8.672;2023-07-13T03:20:50;101012.59;;;12.24;56.64
20656;BME280;10487;53.320;8.672;2023-07-13T03:23:52;101029.41;;;12.26;56.51
20656;BME280;10487;53.320;8.672;2023-07-13T03:26:54;101017.63;;;12.29;56.56
20656;BME280;10487;53.320;8.672;2023-07-13T03:29:55;101023.69;;;12.31;56.60
20656;BME280;10487;53.320;8.672;2023-07-13T03:32:57;101017.34;;;12.32;56.45
20656;BME280;10487;53.320;8.672;2023-07-13T03:35:59;101014.44;;;12.35;56.66
20656;BME280;10487;53.320;8.672;2023-07-13T03:39:03;101020.53;;;12.37;56.77
20656;BME280;10487;53.320;8.672;2023-07-13T03:42:05;101019.44;;;12.39;56.76
20656;BME280;10487;53.320;8.672;2023-07-13T03:45:07;101016.41;;;12.44;56.63
20656;BME280;10487;53.320;8.672;2023-07-13T03:48:09;101022.53;;;12.46;56.61
20656;BME280;10487;53.320;8.672;2023-07-13T03:51:12;101025.78;;;12.49;56.55
20656;BME280;10487;53.320;8.672;2023-07-13T03:54:16;101031.69;;;12.55;56.55
20656;BME280;10487;53.320;8.672;2023-07-13T03:57:18;101033.16;;;12.59;56.66
20656;BME280;10487;53.320;8.672;2023-07-13T04:00:20;101034.75;;;12.61;56.77
20656;BME280;10487;53.320;8.672;2023-07-13T04:03:21;101034.50;;;12.64;56.50
20656;BME280;10487;53.320;8.672;2023-07-13T04:06:27;101036.22;;;12.65;56.67
20656;BME280;10487;53.320;8.672;2023-07-13T04:09:30;101038.75;;;12.67;56.74
20656;BME280;10487;53.320;8.672;2023-07-13T04:12:32;101039.50;;;12.69;56.91
20656;BME280;10487;53.320;8.672;2023-07-13T04:15:33;101041.94;;;12.72;56.55
20656;BME280;10487;53.320;8.672;2023-07-13T04:18:35;101040.84;;;12.74;56.83
20656;BME280;10487;53.320;8.672;2023-07-13T04:21:37;101046.91;;;12.76;56.54
20656;BME280;10487;53.320;8.672;2023-07-13T04:24:39;101045.00;;;12.78;56.56
20656;BME280;10487;53.320;8.672;2023-07-13T04:27:40;101049.25;;;12.81;56.74
20656;BME280;10487;53.320;8.672;2023-07-13T04:30:42;101039.28;;;12.83;56.62
20656;BME280;10487;53.320;8.672;2023-07-13T04:33:44;101045.59;;;13.04;57.05
20656;BME280;10487;53.320;8.672;2023-07-13T04:36:48;101041.72;;;13.30;57.20
20656;BME280;10487;53.320;8.672;2023-07-13T04:39:51;101036.47;;;13.40;56.98
20656;BME280;10487;53.320;8.672;2023-07-13T04:42:53;101035.94;;;13.46;57.14
20656;BME280;10487;53.320;8.672;2023-07-13T04:45:56;101032.19;;;13.48;57.02
20656;BME280;10487;53.320;8.672;2023-07-13T04:48:58;101040.25;;;13.48;57.11
20656;BME280;10487;53.320;8.672;2023-07-13T04:52:00;101049.88;;;13.51;57.04
20656;BME280;10487;53.320;8.672;2023-07-13T04:55:02;101054.41;;;13.50;57.14
20656;BME280;10487;53.320;8.672;2023-07-13T04:58:04;101046.34;;;13.50;56.99
20656;BME280;10487;53.320;8.672;2023-07-13T05:01:06;101053.31;;;13.53;57.07
20656;BME280;10487;53.320;8.672;2023-07-13T05:04:08;101052.91;;;13.57;56.79
20656;BME280;10487;53.320;8.672;2023-07-13T05:07:10;101049.84;;;13.62;57.06
20656;BME280;10487;53.320;8.672;2023-07-13T05:10:11;101063.59;;;13.68;57.15
20656;BME280;10487;53.320;8.672;2023-07-13T05:13:13;101062.41;;;13.72;57.20
20656;BME280;10487;53.320;8.672;2023-07-13T05:16:14;101059.34;;;13.77;57.10
20656;BME280;10487;53.320;8.672;2023-07-13T05:19:16;101069.69;;;13.82;57.15
20656;BME280;10487;53.320;8.672;2023-07-13T05:22:18;101081.03;;;13.85;57.15
20656;BME280;10487;53.320;8.672;2023-07-13T05:25:20;101075.38;;;13.88;56.83
20656;BME280;10487;53.320;8.672;2023-07-13T05:28:21;101080.75;;;13.88;56.81
20656;BME280;10487;53.320;8.672;2023-07-13T05:31:23;101076.00;;;13.92;56.95
20656;BME280;10487;53.320;8.672;2023-07-13T05:34:25;101075.75;;;13.95;56.91
20656;BME280;10487;53.320;8.672;2023-07-13T05:37:27;101071.97;;;13.97;57.05
20656;BME280;10487;53.320;8.672;2023-07-13T05:40:29;101083.16;;;14.02;56.84
20656;BME280;10487;53.320;8.672;2023-07-13T05:43:31;101080.34;;;14.04;57.11
20656;BME280;10487;53.320;8.672;2023-07-13T05:46:33;101083.75;;;14.06;56.97
20656;BME280;10487;53.320;8.672;2023-07-13T05:49:35;101080.94;;;14.07;57.17
20656;BME280;10487;53.320;8.672;2023-07-13T05:52:37;101080.94;;;14.07;57.16
20656;BME280;10487;53.320;8.672;2023-07-13T05:55:43;101091.41;;;14.10;57.04
20656;BME280;10487;53.320;8.672;2023-07-13T05:58:45;101093.97;;;14.12;57.28
20656;BME280;10487;53.320;8.672;2023-07-13T06:01:47;101096.28;;;14.16;57.15
20656;BME280;10487;53.320;8.672;2023-07-13T06:04:48;101097.72;;;14.20;57.29
20656;BME280;10487;53.320;8.672;2023-07-13T06:07:53;101103.56;;;14.25;57.10
20656;BME280;10487;53.320;8.672;2023-07-13T06:11:02;101100.75;;;14.27;57.06
20656;BME280;10487;53.320;8.672;2023-07-13T06:14:04;101104.78;;;14.32;57.26
20656;BME280;10487;53.320;8.672;2023-07-13T06:17:06;101108.66;;;14.40;57.08
20656;BME280;10487;53.320;8.672;2023-07-13T06:20:07;101105.44;;;14.46;57.14
20656;BME280;10487;53.320;8.672;2023-07-13T06:23:09;101109.59;;;14.50;57.20
20656;BME280;10487;53.320;8.672;2023-07-13T06:26:11;101111.03;;;14.54;57.20
20656;BME280;10487;53.320;8.672;2023-07-13T06:29:13;101118.59;;;14.60;57.27
20656;BME280;10487;53.320;8.672;2023-07-13T06:32:14;101119.06;;;14.65;57.17
20656;BME280;10487;53.320;8.672;2023-07-13T06:35:16;101124.13;;;14.68;57.09
20656;BME280;10487;53.320;8.672;2023-07-13T06:38:18;101120.81;;;14.75;57.23
20656;BME280;10487;53.320;8.672;2023-07-13T06:41:20;101126.78;;;14.79;57.43
20656;BME280;10487;53.320;8.672;2023-07-13T06:44:23;101142.34;;;14.85;57.08
20656;BME280;10487;53.320;8.672;2023-07-13T06:47:25;101140.28;;;14.88;57.12
20656;BME280;10487;53.320;8.672;2023-07-13T06:50:27;101138.19;;;14.92;57.27
20656;BME280;10487;53.320;8.672;2023-07-13T06:53:28;101136.06;;;14.95;57.25
20656;BME280;10487;53.320;8.672;2023-07-13T06:56:30;101134.94;;;14.98;57.16
20656;BME280;10487;53.320;8.672;2023-07-13T06:59:32;101133.69;;;15.02;57.09
20656;BME280;10487;53.320;8.672;2023-07-13T07:02:33;101138.56;;;15.08;57.13
20656;BME280;10487;53.320;8.672;2023-07-13T07:05:35;101140.84;;;15.13;57.20
20656;BME280;10487;53.320;8.672;2023-07-13T07:08:37;101145.25;;;15.14;56.96
20656;BME280;10487;53.320;8.672;2023-07-13T07:11:38;101145.69;;;15.19;56.98
20656;BME280;10487;53.320;8.672;2023-07-13T07:15:00;101141.53;;;15.26;57.08
20656;BME280;10487;53.320;8.672;2023-07-13T07:18:02;101142.81;;;15.31;57.08
20656;BME280;10487;53.320;8.672;2023-07-13T07:21:04;101143.13;;;15.38;57.08
20656;BME280;10487;53.320;8.672;2023-07-13T07:24:06;101140.19;;;15.41;57.05
20656;BME280;10487;53.320;8.672;2023-07-13T07:27:08;101143.31;;;15.46;57.15
20656;BME280;10487;53.320;8.672;2023-07-13T07:30:13;101140.38;;;15.49;57.00
20656;BME280;10487;53.320;8.672;2023-07-13T07:33:18;101141.63;;;15.54;57.01
20656;BME280;10487;53.320;8.672;2023-07-13T07:36:19;101138.84;;;15.56;57.13
20656;BME280;10487;53.320;8.672;2023-07-13T07:39:24;101140.66;;;15.55;57.01
20656;BME280;10487;53.320;8.672;2023-07-13T07:42:26;101136.59;;;15.61;57.02
20656;BME280;10487;53.320;8.672;2023-07-13T07:45:27;101139.44;;;15.69;56.92
20656;BME280;10487;53.320;8.672;2023-07-13T07:48:30;101133.38;;;15.77;57.00
20656;BME280;10487;53.320;8.672;2023-07-13T07:51:32;101134.66;;;15.82;56.86
20656;BME280;10487;53.320;8.672;2023-07-13T07:54:33;101136.22;;;15.85;56.88
20656;BME280;10487;53.320;8.672;2023-07-13T07:57:38;101147.44;;;15.90;56.88
20656;BME280;10487;53.320;8.672;2023-07-13T08:00:43;101140.06;;;15.92;56.92
20656;BME280;10487;53.320;8.672;2023-07-13T08:03:47;101144.19;;;15.96;57.07
20656;BME280;10487;53.320;8.672;2023-07-13T08:06:52;101137.81;;;15.97;57.09
20656;BME280;10487;53.320;8.672;2023-07-13T08:09:53;101143.78;;;16.00;56.84
20656;BME280;10487;53.320;8.672;2023-07-13T08:12:55;101133.03;;;16.00;56.73
20656;BME280;10487;53.320;8.672;2023-07-13T08:16:00;101148.03;;;16.03;56.89
20656;BME280;10487;53.320;8.672;2023-07-13T08:19:02;101145.19;;;16.04;56.75
20656;BME280;10487;53.320;8.672;2023-07-13T08:22:04;101145.09;;;16.06;56.87
20656;BME280;10487;53.320;8.672;2023-07-13T08:25:06;101148.25;;;16.11;56.82
20656;BME280;10487;53.320;8.672;2023-07-13T08:28:08;101146.41;;;16.21;56.52
20656;BME280;10487;53.320;8.672;2023-07-13T08:31:10;101146.00;;;16.25;56.63
20656;BME280;10487;53.320;8.672;2023-07-13T08:34:12;101155.31;;;16.31;56.68
20656;BME280;10487;53.320;8.672;2023-07-13T08:37:18;101149.13;;;16.40;56.53
20656;BME280;10487;53.320;8.672;2023-07-13T08:40:24;101150.41;;;16.55;56.83
20656;BME280;10487;53.320;8.672;2023-07-13T08:43:29;101150.25;;;16.66;56.60
20656;BME280;10487;53.320;8.672;2023-07-13T08:46:35;101153.06;;;16.74;56.54
20656;BME280;10487;53.320;8.672;2023-07-13T08:49:38;101151.50;;;16.81;56.85
20656;BME280;10487;53.320;8.672;2023-07-13T08:52:42;101156.38;;;16.87;56.37
20656;BME280;10487;53.320;8.672;2023-07-13T08:55:44;101153.94;;;16.94;56.39
20656;BME280;10487;53.320;8.672;2023-07-13T08:58:50;101153.50;;;16.99;56.45
20656;BME280;10487;53.320;8.672;2023-07-13T09:14:49;101155.88;;;17.21;56.57
20656;BME280;10487;53.320;8.672;2023-07-13T09:17:53;101150.31;;;17.32;55.94
20656;BME280;10487;53.320;8.672;2023-07-13T09:21:00;101145.72;;;17.42;56.19
20656;BME280;10487;53.320;8.672;2023-07-13T09:27:34;101147.25;;;17.54;55.81
20656;BME280;10487;53.320;8.672;2023-07-13T09:33:49;101160.28;;;17.68;56.08
20656;BME280;10487;53.320;8.672;2023-07-13T09:36:52;101153.28;;;17.75;55.91
20656;BME280;10487;53.320;8.672;2023-07-13T09:39:54;101157.09;;;17.82;55.61
20656;BME280;10487;53.320;8.672;2023-07-13T09:42:58;101157.63;;;17.86;55.44
20656;BME280;10487;53.320;8.672;2023-07-13T09:46:00;101157.50;;;17.87;55.38
20656;BME280;10487;53.320;8.672;2023-07-13T09:49:02;101147.22;;;17.91;55.38
20656;BME280;10487;53.320;8.672;2023-07-13T09:52:07;101154.56;;;17.98;55.23
20656;BME280;10487;53.320;8.672;2023-07-13T09:58:29;101150.19;;;18.15;55.07
20656;BME280;10487;53.320;8.672;2023-07-13T10:01:38;101155.88;;;18.22;55.15
20656;BME280;10487;53.320;8.672;2023-07-13T10:04:40;101152.06;;;18.32;54.74
20656;BME280;10487;53.320;8.672;2023-07-13T10:07:44;101150.72;;;18.46;55.08
20656;BME280;10487;53.320;8.672;2023-07-13T10:10:46;101144.63;;;18.61;54.97
20656;BME280;10487;53.320;8.672;2023-07-13T10:14:01;101145.44;;;18.79;54.80
20656;BME280;10487;53.320;8.672;2023-07-13T10:17:04;101164.03;;;19.00;54.36
20656;BME280;10487;53.320;8.672;2023-07-13T10:20:08;101149.34;;;19.20;54.59
20656;BME280;10487;53.320;8.672;2023-07-13T10:23:21;101160.47;;;19.43;54.38
20656;BME280;10487;53.320;8.672;2023-07-13T10:26:29;101162.78;;;19.64;54.08
20656;BME280;10487;53.320;8.672;2023-07-13T10:29:47;101156.41;;;19.73;54.05
20656;BME280;10487;53.320;8.672;2023-07-13T10:32:50;101166.56;;;19.71;53.79
20656;BME280;10487;53.320;8.672;2023-07-13T10:35:59;101175.63;;;19.62;53.72
20656;BME280;10487;53.320;8.672;2023-07-13T10:39:05;101175.06;;;19.50;54.19
20656;BME280;10487;53.320;8.672;2023-07-13T10:42:12;101170.75;;;19.39;53.77
20656;BME280;10487;53.320;8.672;2023-07-13T10:45:19;101167.69;;;19.34;53.79
20656;BME280;10487;53.320;8.672;2023-07-13T10:48:23;101166.75;;;19.43;54.02
20656;BME280;10487;53.320;8.672;2023-07-13T10:51:26;101178.13;;;19.55;53.54
20656;BME280;10487;53.320;8.672;2023-07-13T10:54:30;101166.38;;;19.72;53.53
20656;BME280;10487;53.320;8.672;2023-07-13T10:57:42;101160.41;;;19.94;53.61
20656;BME280;10487;53.320;8.672;2023-07-13T11:00:49;101177.28;;;20.22;53.31
20656;BME280;10487;53.320;8.672;2023-07-13T11:04:03;101184.03;;;20.26;53.30
20656;BME280;10487;53.320;8.672;2023-07-13T11:07:16;101186.72;;;20.18;53.04
20656;BME280;10487;53.320;8.672;2023-07-13T11:10:46;101216.66;;;20.08;53.21
20656;BME280;10487;53.320;8.672;2023-07-13T11:16:49;101207.94;;;19.81;53.18
20656;BME280;10487;53.320;8.672;2023-07-13T11:19:52;101217.75;;;19.64;53.24
20656;BME280;10487;53.320;8.672;2023-07-13T11:23:15;101214.19;;;19.56;53.46
20656;BME280;10487;53.320;8.672;2023-07-13T11:26:39;101225.50;;;19.51;53.59
20656;BME280;10487;53.320;8.672;2023-07-13T11:29:40;101227.97;;;19.44;53.62
20656;BME280;10487;53.320;8.672;2023-07-13T11:32:42;101234.72;;;19.40;53.58
20656;BME280;10487;53.320;8.672;2023-07-13T11:35:46;101230.94;;;19.33;53.53
20656;BME280;10487;53.320;8.672;2023-07-13T11:42:08;101255.44;;;19.14;53.33
20656;BME280;10487;53.320;8.672;2023-07-13T11:45:30;101260.06;;;19.04;53.15
20656;BME280;10487;53.320;8.672;2023-07-13T11:48:49;101296.75;;;18.89;52.94
20656;BME280;10487;53.320;8.672;2023-07-13T11:51:53;101291.19;;;18.73;52.98
20656;BME280;10487;53.320;8.672;2023-07-13T11:55:00;101280.53;;;18.54;52.89
20656;BME280;10487;53.320;8.672;2023-07-13T11:58:02;101296.22;;;18.41;52.94
20656;BME280;10487;53.320;8.672;2023-07-13T12:01:05;101296.94;;;18.33;52.95
20656;BME280;10487;53.320;8.672;2023-07-13T12:04:23;101301.53;;;18.23;52.78
20656;BME280;10487;53.320;8.672;2023-07-13T12:07:29;101317.78;;;18.13;53.06
20656;BME280;10487;53.320;8.672;2023-07-13T12:10:31;101300.22;;;18.00;52.90
20656;BME280;10487;53.320;8.672;2023-07-13T12:13:37;101302.13;;;17.90;52.93
20656;BME280;10487;53.320;8.672;2023-07-13T12:16:40;101311.06;;;17.81;52.84
20656;BME280;10487;53.320;8.672;2023-07-13T12:19:43;101308.41;;;17.71;52.82
20656;BME280;10487;53.320;8.672;2023-07-13T12:22:46;101307.84;;;17.68;52.84
20656;BME280;10487;53.320;8.672;2023-07-13T12:25:48;101316.38;;;17.63;52.80
20656;BME280;10487;53.320;8.672;2023-07-13T12:28:54;101314.94;;;17.59;52.84
20656;BME280;10487;53.320;8.672;2023-07-13T12:31:58;101322.59;;;17.54;52.81
20656;BME280;10487;53.320;8.672;2023-07-13T12:35:16;101320.63;;;17.56;52.79
20656;BME280;10487;53.320;8.672;2023-07-13T12:38:24;101320.19;;;17.70;53.17
20656;BME280;10487;53.320;8.672;2023-07-13T12:41:27;101306.66;;;17.89;53.09
20656;BME280;10487;53.320;8.672;2023-07-13T12:44:30;101311.53;;;18.13;52.80
20656;BME280;10487;53.320;8.672;2023-07-13T12:47:41;101322.25;;;18.32;52.96
20656;BME280;10487;53.320;8.672;2023-07-13T12:50:47;101307.59;;;18.44;52.39
20656;BME280;10487;53.320;8.672;2023-07-13T12:54:07;101323.88;;;18.52;52.74
20656;BME280;10487;53.320;8.672;2023-07-13T12:57:16;101330.16;;;18.53;52.50
20656;BME280;10487;53.320;8.672;2023-07-13T13:00:35;101324.75;;;18.53;52.30
20656;BME280;10487;53.320;8.672;2023-07-13T13:03:41;101326.59;;;18.52;52.69
20656;BME280;10487;53.320;8.672;2023-07-13T13:06:48;101318.09;;;18.47;52.32
20656;BME280;10487;53.320;8.672;2023-07-13T13:09:50;101306.59;;;18.45;52.62
20656;BME280;10487;53.320;8.672;2023-07-13T13:12:52;101302.13;;;18.54;52.81
20656;BME280;10487;53.320;8.672;2023-07-13T13:15:54;101307.72;;;18.70;52.41
20656;BME280;10487;53.320;8.672;2023-07-13T13:18:57;101303.97;;;18.98;52.61
20656;BME280;10487;53.320;8.672;2023-07-13T13:22:00;101313.09;;;19.15;52.27
20656;BME280;10487;53.320;8.672;2023-07-13T13:25:02;101308.38;;;19.17;51.71
20656;BME280;10487;53.320;8.672;2023-07-13T13:28:16;101329.34;;;19.15;51.82
20656;BME280;10487;53.320;8.672;2023-07-13T13:31:18;101326.13;;;19.11;51.77
20656;BME280;10487;53.320;8.672;2023-07-13T13:34:21;101326.50;;;19.07;51.77
20656;BME280;10487;53.320;8.672;2023-07-13T13:37:24;101333.25;;;19.03;52.02
20656;BME280;10487;53.320;8.672;2023-07-13T13:40:27;101343.97;;;18.95;51.56
20656;BME280;10487;53.320;8.672;2023-07-13T13:43:29;101342.88;;;18.88;51.61
20656;BME280;10487;53.320;8.672;2023-07-13T13:46:31;101350.06;;;18.79;52.08
20656;BME280;10487;53.320;8.672;2023-07-13T13:49:32;101359.06;;;18.70;51.98
20656;BME280;10487;53.320;8.672;2023-07-13T13:52:34;101346.75;;;18.58;51.63
20656;BME280;10487;53.320;8.672;2023-07-13T13:55:36;101360.34;;;18.48;51.80
20656;BME280;10487;53.320;8.672;2023-07-13T13:58:38;101363.22;;;18.37;51.82
20656;BME280;10487;53.320;8.672;2023-07-13T14:01:41;101368.16;;;18.32;51.83
20656;BME280;10487;53.320;8.672;2023-07-13T14:04:43;101370.63;;;18.26;52.30
20656;BME280;10487;53.320;8.672;2023-07-13T14:07:46;101375.91;;;18.17;51.99
20656;BME280;10487;53.320;8.672;2023-07-13T14:10:50;101370.81;;;18.05;52.32
20656;BME280;10487;53.320;8.672;2023-07-13T14:13:56;101367.28;;;17.95;51.94
20656;BME280;10487;53.320;8.672;2023-07-13T14:16:59;101390.78;;;17.85;52.39
20656;BME280;10487;53.320;8.672;2023-07-13T14:20:01;101397.72;;;17.78;52.54
20656;BME280;10487;53.320;8.672;2023-07-13T14:23:05;101400.16;;;17.71;52.13
20656;BME280;10487;53.320;8.672;2023-07-13T14:26:12;101399.03;;;17.64;52.52
20656;BME280;10487;53.320;8.672;2023-07-13T14:29:17;101394.16;;;17.58;52.61
20656;BME280;10487;53.320;8.672;2023-07-13T14:32:24;101387.22;;;17.46;52.65
20656;BME280;10487;53.320;8.672;2023-07-13T14:35:26;101371.19;;;17.35;52.55
20656;BME280;10487;53.320;8.672;2023-07-13T14:38:28;101379.13;;;17.27;52.72
20656;BME280;10487;53.320;8.672;2023-07-13T14:41:30;101369.31;;;17.16;52.43
20656;BME280;10487;53.320;8.672;2023-07-13T14:44:33;101371.72;;;17.10;52.44
20656;BME280;10487;53.320;8.672;2023-07-13T14:47:34;101366.75;;;17.05;52.53
20656;BME280;10487;53.320;8.672;2023-07-13T14:50:36;101367.03;;;17.02;52.74
20656;BME280;10487;53.320;8.672;2023-07-13T14:53:39;101359.06;;;16.91;52.67
20656;BME280;10487;53.320;8.672;2023-07-13T14:56:41;101355.09;;;16.85;53.00
20656;BME280;10487;53.320;8.672;2023-07-13T14:59:43;101339.16;;;16.82;52.91
20656;BME280;10487;53.320;8.672;2023-07-13T15:02:50;101352.66;;;16.82;52.83
20656;BME280;10487;53.320;8.672;2023-07-13T15:05:52;101358.09;;;16.92;53.33
20656;BME280;10487;53.320;8.672;2023-07-13T15:08:54;101360.09;;;17.00;52.93
20656;BME280;10487;53.320;8.672;2023-07-13T15:11:58;101347.03;;;17.05;52.93
20656;BME280;10487;53.320;8.672;2023-07-13T15:14:59;101362.94;;;17.08;52.87
20656;BME280;10487;53.320;8.672;2023-07-13T15:18:01;101377.97;;;17.10;53.09
20656;BME280;10487;53.320;8.672;2023-07-13T15:21:03;101368.03;;;17.11;52.75
20656;BME280;10487;53.320;8.672;2023-07-13T15:24:05;101368.75;;;17.13;53.15
20656;BME280;10487;53.320;8.672;2023-07-13T15:27:11;101365.31;;;17.11;53.14
20656;BME280;10487;53.320;8.672;2023-07-13T15:30:14;101365.31;;;17.11;53.16
20656;BME280;10487;53.320;8.672;2023-07-13T15:36:22;101355.84;;;17.07;53.25
20656;BME280;10487;53.320;8.672;2023-07-13T15:39:24;101368.34;;;17.08;53.15
20656;BME280;10487;53.320;8.672;2023-07-13T15:42:26;101370.00;;;17.09;53.18
20656;BME280;10487;53.320;8.672;2023-07-13T15:45:28;101363.75;;;17.08;53.21
20656;BME280;10487;53.320;8.672;2023-07-13T15:48:30;101373.16;;;17.14;53.25
20656;BME280;10487;53.320;8.672;2023-07-13T15:51:34;101363.81;;;17.18;53.35
20656;BME280;10487;53.320;8.672;2023-07-13T15:54:37;101368.63;;;17.24;53.00
20656;BME280;10487;53.320;8.672;2023-07-13T15:57:47;101363.22;;;17.24;53.23
20656;BME280;10487;53.320;8.672;2023-07-13T16:00:49;101351.56;;;17.23;53.14
20656;BME280;10487;53.320;8.672;2023-07-13T16:03:53;101354.16;;;17.25;53.61
20656;BME280;10487;53.320;8.672;2023-07-13T16:06:54;101361.81;;;17.29;53.50
20656;BME280;10487;53.320;8.672;2023-07-13T16:09:56;101362.09;;;17.36;53.50
20656;BME280;10487;53.320;8.672;2023-07-13T16:12:58;101363.81;;;17.37;53.00
20656;BME280;10487;53.320;8.672;2023-07-13T16:16:01;101369.34;;;17.45;53.52
20656;BME280;10487;53.320;8.672;2023-07-13T16:19:04;101354.41;;;17.50;53.14
20656;BME280;10487;53.320;8.672;2023-07-13T16:22:14;101361.94;;;17.56;53.46
20656;BME280;10487;53.320;8.672;2023-07-13T16:25:19;101358.97;;;17.60;53.40
20656;BME280;10487;53.320;8.672;2023-07-13T16:28:21;101358.69;;;17.63;53.17
20656;BME280;10487;53.320;8.672;2023-07-13T16:31:24;101371.47;;;17.70;53.19
20656;BME280;10487;53.320;8.672;2023-07-13T16:34:26;101371.75;;;17.77;53.10
20656;BME280;10487;53.320;8.672;2023-07-13T16:37:29;101364.78;;;17.84;53.11
20656;BME280;10487;53.320;8.672;2023-07-13T16:40:33;101370.88;;;17.86;53.00